sensor_id;sensor_type;location;lat;lon;timestamp;P1;durP1;ratioP1;P2;durP2;ratioP2
53036;SDS011;38924;52.134;4.666;2023-07-20T00:01:57;5.45;;;4.88;;
53036;SDS011;38924;52.134;4.666;2023-07-20T00:04:23;7.65;;;6.22;;
53036;SDS011;38924;52.134;4.666;2023-07-20T00:06:49;5.53;;;4.97;;
53036;SDS011;38924;52.134;4.666;2023-07-20T00:09:15;5.28;;;4.85;;
53036;SDS011;38924;52.134;4.666;2023-07-20T00:11:47;9.20;;;5.88;;
53036;SDS011;38924;52.134;4.666;2023-07-20T00:14:13;6.50;;;5.47;;
53036;SDS011;38924;52.134;4.666;2023-07-20T00:16:39;5.35;;;4.90;;
53036;SDS011;38924;52.134;4.666;2023-07-20T00:19:04;7.03;;;6.32;;
53036;SDS011;38924;52.134;4.666;2023-07-20T00:21:32;6.75;;;6.20;;
53036;SDS011;38924;52.134;4.666;2023-07-20T00:23:58;5.93;;;5.43;;
53036;SDS011;38924;52.134;4.666;2023-07-20T00:26:23;5.22;;;4.80;;
53036;SDS011;38924;52.134;4.666;2023-07-20T00:28:49;11.90;;;6.15;;
53036;SDS011;38924;52.134;4.666;2023-07-20T00:31:18;5.97;;;5.47;;
53036;SDS011;38924;52.134;4.666;2023-07-20T00:33:44;7.43;;;6.72;;
53036;SDS011;38924;52.134;4.666;2023-07-20T00:36:10;6.05;;;5.55;;
53036;SDS011;38924;52.134;4.666;2023-07-20T00:38:35;6.30;;;5.80;;
53036;SDS011;38924;52.134;4.666;2023-07-20T00:41:04;6.10;;;5.50;;
53036;SDS011;38924;52.134;4.666;2023-07-20T00:43:29;6.97;;;6.38;;
53036;SDS011;38924;52.134;4.666;2023-07-20T00:45:58;6.15;;;5.68;;
53036;SDS011;38924;52.134;4.666;2023-07-20T00:48:24;7.82;;;5.90;;
53036;SDS011;38924;52.134;4.666;2023-07-20T00:50:50;6.60;;;5.78;;
53036;SDS011;38924;52.134;4.666;2023-07-20T00:53:16;6.20;;;5.57;;
53036;SDS011;38924;52.134;4.666;2023-07-20T00:55:42;5.43;;;5.03;;
53036;SDS011;38924;52.134;4.666;2023-07-20T00:58:08;5.78;;;4.53;;
53036;SDS011;38924;52.134;4.666;2023-07-20T01:00:34;7.93;;;4.38;;
53036;SDS011;38924;52.134;4.666;2023-07-20T01:03:00;5.07;;;3.95;;
53036;SDS011;38924;52.134;4.666;2023-07-20T01:08:18;6.57;;;3.97;;
53036;SDS011;38924;52.134;4.666;2023-07-20T01:10:50;3.50;;;3.20;;
53036;SDS011;38924;52.134;4.666;2023-07-20T01:13:17;4.15;;;3.75;;
53036;SDS011;38924;52.134;4.666;2023-07-20T01:15:48;4.13;;;3.55;;
53036;SDS011;38924;52.134;4.666;2023-07-20T01:18:17;5.68;;;3.90;;
53036;SDS011;38924;52.134;4.666;2023-07-20T01:20:43;3.30;;;3.05;;
53036;SDS011;38924;52.134;4.666;2023-07-20T01:33:41;3.72;;;3.42;;
53036;SDS011;38924;52.134;4.666;2023-07-20T01:36:07;4.63;;;3.40;;
53036;SDS011;38924;52.134;4.666;2023-07-20T01:38:33;4.28;;;3.88;;
53036;SDS011;38924;52.134;4.666;2023-07-20T01:41:00;4.20;;;3.80;;
53036;SDS011;38924;52.134;4.666;2023-07-20T01:43:27;4.65;;;3.20;;
53036;SDS011;38924;52.134;4.666;2023-07-20T01:45:52;4.57;;;3.78;;
53036;SDS011;38924;52.134;4.666;2023-07-20T01:48:18;4.70;;;3.53;;
53036;SDS011;38924;52.134;4.666;2023-07-20T01:50:44;5.07;;;4.57;;
53036;SDS011;38924;52.134;4.666;2023-07-20T01:53:10;3.95;;;3.55;;
53036;SDS011;38924;52.134;4.666;2023-07-20T01:55:36;4.22;;;3.88;;
53036;SDS011;38924;52.134;4.666;2023-07-20T01:58:01;4.00;;;3.70;;
53036;SDS011;38924;52.134;4.666;2023-07-20T02:00:29;4.55;;;4.15;;
53036;SDS011;38924;52.134;4.666;2023-07-20T02:02:55;4.85;;;4.45;;
53036;SDS011;38924;52.134;4.666;2023-07-20T02:05:20;5.07;;;4.13;;
53036;SDS011;38924;52.134;4.666;2023-07-20T02:07:47;4.90;;;4.40;;
53036;SDS011;38924;52.134;4.666;2023-07-20T02:10:17;6.97;;;5.60;;
53036;SDS011;38924;52.134;4.666;2023-07-20T02:12:42;6.68;;;6.07;;
53036;SDS011;38924;52.134;4.666;2023-07-20T02:15:08;7.65;;;6.35;;
53036;SDS011;38924;52.134;4.666;2023-07-20T02:17:34;10.15;;;6.28;;
53036;SDS011;38924;52.134;4.666;2023-07-20T02:20:01;8.52;;;6.50;;
53036;SDS011;38924;52.134;4.666;2023-07-20T02:22:27;8.13;;;6.72;;
53036;SDS011;38924;52.134;4.666;2023-07-20T02:24:53;8.40;;;7.45;;
53036;SDS011;38924;52.134;4.666;2023-07-20T02:27:18;7.15;;;6.45;;
53036;SDS011;38924;52.134;4.666;2023-07-20T02:29:44;8.20;;;6.47;;
53036;SDS011;38924;52.134;4.666;2023-07-20T02:32:10;7.55;;;6.82;;
53036;SDS011;38924;52.134;4.666;2023-07-20T02:34:36;10.13;;;7.93;;
53036;SDS011;38924;52.134;4.666;2023-07-20T02:37:02;8.73;;;7.88;;
53036;SDS011;38924;52.134;4.666;2023-07-20T02:39:28;8.57;;;7.65;;
53036;SDS011;38924;52.134;4.666;2023-07-20T02:41:54;12.15;;;8.07;;
53036;SDS011;38924;52.134;4.666;2023-07-20T02:44:20;10.20;;;7.97;;
53036;SDS011;38924;52.134;4.666;2023-07-20T02:46:45;7.65;;;6.95;;
53036;SDS011;38924;52.134;4.666;2023-07-20T02:49:11;8.40;;;7.60;;
53036;SDS011;38924;52.134;4.666;2023-07-20T02:51:37;9.23;;;8.38;;
53036;SDS011;38924;52.134;4.666;2023-07-20T02:54:03;8.82;;;7.95;;
53036;SDS011;38924;52.134;4.666;2023-07-20T02:56:38;11.43;;;7.90;;
53036;SDS011;38924;52.134;4.666;2023-07-20T02:59:03;9.93;;;8.00;;
53036;SDS011;38924;52.134;4.666;2023-07-20T03:01:29;7.97;;;7.18;;
53036;SDS011;38924;52.134;4.666;2023-07-20T03:03:55;7.60;;;6.90;;
53036;SDS011;38924;52.134;4.666;2023-07-20T03:06:21;7.60;;;6.88;;
53036;SDS011;38924;52.134;4.666;2023-07-20T03:08:47;8.35;;;7.55;;
53036;SDS011;38924;52.134;4.666;2023-07-20T03:11:14;6.85;;;6.15;;
53036;SDS011;38924;52.134;4.666;2023-07-20T03:13:41;7.45;;;6.78;;
53036;SDS011;38924;52.134;4.666;2023-07-20T03:16:08;7.53;;;6.75;;
53036;SDS011;38924;52.134;4.666;2023-07-20T03:18:37;7.88;;;6.53;;
53036;SDS011;38924;52.134;4.666;2023-07-20T03:21:03;8.23;;;7.40;;
53036;SDS011;38924;52.134;4.666;2023-07-20T03:23:32;7.38;;;6.68;;
53036;SDS011;38924;52.134;4.666;2023-07-20T03:25:58;8.30;;;7.00;;
53036;SDS011;38924;52.134;4.666;2023-07-20T03:28:26;7.43;;;6.72;;
53036;SDS011;38924;52.134;4.666;2023-07-20T03:30:57;7.25;;;6.47;;
53036;SDS011;38924;52.134;4.666;2023-07-20T03:33:25;7.65;;;6.93;;
53036;SDS011;38924;52.134;4.666;2023-07-20T03:35:51;6.50;;;5.88;;
53036;SDS011;38924;52.134;4.666;2023-07-20T03:38:17;8.68;;;6.47;;
53036;SDS011;38924;52.134;4.666;2023-07-20T03:40:52;7.97;;;7.28;;
53036;SDS011;38924;52.134;4.666;2023-07-20T03:43:18;6.85;;;6.15;;
53036;SDS011;38924;52.134;4.666;2023-07-20T03:45:44;7.65;;;6.45;;
53036;SDS011;38924;52.134;4.666;2023-07-20T03:48:11;6.80;;;6.18;;
53036;SDS011;38924;52.134;4.666;2023-07-20T03:50:38;7.97;;;6.30;;
53036;SDS011;38924;52.134;4.666;2023-07-20T03:53:04;6.15;;;5.55;;
53036;SDS011;38924;52.134;4.666;2023-07-20T03:55:29;5.95;;;5.45;;
53036;SDS011;38924;52.134;4.666;2023-07-20T03:57:55;5.78;;;5.28;;
53036;SDS011;38924;52.134;4.666;2023-07-20T04:00:21;6.50;;;5.75;;
53036;SDS011;38924;52.134;4.666;2023-07-20T04:02:48;6.20;;;5.60;;
53036;SDS011;38924;52.134;4.666;2023-07-20T04:05:17;6.07;;;5.50;;
53036;SDS011;38924;52.134;4.666;2023-07-20T04:07:43;5.88;;;5.38;;
53036;SDS011;38924;52.134;4.666;2023-07-20T04:10:08;6.82;;;6.00;;
53036;SDS011;38924;52.134;4.666;2023-07-20T04:12:34;6.65;;;5.95;;
53036;SDS011;38924;52.134;4.666;2023-07-20T04:15:00;8.35;;;5.75;;
53036;SDS011;38924;52.134;4.666;2023-07-20T04:17:27;6.35;;;5.75;;
53036;SDS011;38924;52.134;4.666;2023-07-20T04:19:53;7.85;;;5.47;;
53036;SDS011;38924;52.134;4.666;2023-07-20T04:22:18;8.18;;;6.85;;
53036;SDS011;38924;52.134;4.666;2023-07-20T04:24:44;7.57;;;6.22;;
53036;SDS011;38924;52.134;4.666;2023-07-20T04:27:10;6.72;;;6.03;;
53036;SDS011;38924;52.134;4.666;2023-07-20T04:29:36;7.68;;;5.93;;
53036;SDS011;38924;52.134;4.666;2023-07-20T04:32:02;8.63;;;5.85;;
53036;SDS011;38924;52.134;4.666;2023-07-20T04:34:28;8.25;;;6.30;;
53036;SDS011;38924;52.134;4.666;2023-07-20T04:36:54;8.30;;;6.40;;
53036;SDS011;38924;52.134;4.666;2023-07-20T04:39:21;6.10;;;5.35;;
53036;SDS011;38924;52.134;4.666;2023-07-20T04:41:47;5.43;;;4.93;;
53036;SDS011;38924;52.134;4.666;2023-07-20T04:44:15;5.90;;;5.20;;
53036;SDS011;38924;52.134;4.666;2023-07-20T04:46:41;4.68;;;4.15;;
53036;SDS011;38924;52.134;4.666;2023-07-20T04:49:09;4.07;;;3.78;;
53036;SDS011;38924;52.134;4.666;2023-07-20T04:51:40;6.97;;;4.13;;
53036;SDS011;38924;52.134;4.666;2023-07-20T04:54:06;3.70;;;3.40;;
53036;SDS011;38924;52.134;4.666;2023-07-20T04:56:35;4.30;;;3.88;;
53036;SDS011;38924;52.134;4.666;2023-07-20T04:59:02;4.03;;;3.72;;
53036;SDS011;38924;52.134;4.666;2023-07-20T05:01:28;4.40;;;4.00;;
53036;SDS011;38924;52.134;4.666;2023-07-20T05:03:54;3.75;;;3.13;;
53036;SDS011;38924;52.134;4.666;2023-07-20T05:06:20;3.25;;;2.95;;
53036;SDS011;38924;52.134;4.666;2023-07-20T05:08:46;3.38;;;2.60;;
53036;SDS011;38924;52.134;4.666;2023-07-20T05:11:12;4.25;;;2.42;;
53036;SDS011;38924;52.134;4.666;2023-07-20T05:13:38;3.10;;;2.60;;
53036;SDS011;38924;52.134;4.666;2023-07-20T05:16:03;3.03;;;2.83;;
53036;SDS011;38924;52.134;4.666;2023-07-20T05:18:30;2.85;;;2.42;;
53036;SDS011;38924;52.134;4.666;2023-07-20T05:20:56;2.60;;;2.40;;
53036;SDS011;38924;52.134;4.666;2023-07-20T05:23:22;3.00;;;2.40;;
53036;SDS011;38924;52.134;4.666;2023-07-20T05:25:58;3.13;;;2.38;;
53036;SDS011;38924;52.134;4.666;2023-07-20T05:28:24;2.90;;;2.35;;
53036;SDS011;38924;52.134;4.666;2023-07-20T05:30:50;2.35;;;2.15;;
53036;SDS011;38924;52.134;4.666;2023-07-20T05:33:17;4.35;;;2.17;;
53036;SDS011;38924;52.134;4.666;2023-07-20T05:35:43;2.33;;;2.20;;
53036;SDS011;38924;52.134;4.666;2023-07-20T05:38:09;4.78;;;2.30;;
53036;SDS011;38924;52.134;4.666;2023-07-20T05:40:37;3.08;;;2.47;;
53036;SDS011;38924;52.134;4.666;2023-07-20T05:43:02;2.75;;;2.40;;
53036;SDS011;38924;52.134;4.666;2023-07-20T05:45:31;4.20;;;3.60;;
53036;SDS011;38924;52.134;4.666;2023-07-20T05:47:57;3.45;;;2.47;;
53036;SDS011;38924;52.134;4.666;2023-07-20T05:50:23;4.55;;;2.90;;
53036;SDS011;38924;52.134;4.666;2023-07-20T05:52:48;3.20;;;2.90;;
53036;SDS011;38924;52.134;4.666;2023-07-20T05:55:14;2.83;;;2.63;;
53036;SDS011;38924;52.134;4.666;2023-07-20T05:57:40;2.47;;;2.30;;
53036;SDS011;38924;52.134;4.666;2023-07-20T06:00:07;2.92;;;2.47;;
53036;SDS011;38924;52.134;4.666;2023-07-20T06:02:39;2.80;;;2.30;;
53036;SDS011;38924;52.134;4.666;2023-07-20T06:05:06;3.70;;;2.35;;
53036;SDS011;38924;52.134;4.666;2023-07-20T06:07:37;2.33;;;2.13;;
53036;SDS011;38924;52.134;4.666;2023-07-20T06:10:04;2.70;;;2.35;;
53036;SDS011;38924;52.134;4.666;2023-07-20T06:12:37;2.88;;;2.67;;
53036;SDS011;38924;52.134;4.666;2023-07-20T06:15:03;3.65;;;2.55;;
53036;SDS011;38924;52.134;4.666;2023-07-20T06:17:29;5.28;;;4.80;;
53036;SDS011;38924;52.134;4.666;2023-07-20T06:19:55;3.50;;;3.22;;
53036;SDS011;38924;52.134;4.666;2023-07-20T06:22:21;5.22;;;4.25;;
53036;SDS011;38924;52.134;4.666;2023-07-20T06:24:47;4.68;;;4.38;;
53036;SDS011;38924;52.134;4.666;2023-07-20T06:27:12;3.63;;;3.38;;
53036;SDS011;38924;52.134;4.666;2023-07-20T06:29:38;4.65;;;3.95;;
53036;SDS011;38924;52.134;4.666;2023-07-20T06:32:04;5.90;;;5.50;;
53036;SDS011;38924;52.134;4.666;2023-07-20T06:34:30;6.28;;;5.88;;
53036;SDS011;38924;52.134;4.666;2023-07-20T06:36:56;5.53;;;5.15;;
53036;SDS011;38924;52.134;4.666;2023-07-20T06:39:22;6.40;;;5.82;;
53036;SDS011;38924;52.134;4.666;2023-07-20T06:41:48;7.50;;;5.55;;
53036;SDS011;38924;52.134;4.666;2023-07-20T06:44:13;5.45;;;5.03;;
53036;SDS011;38924;52.134;4.666;2023-07-20T06:46:39;8.13;;;7.63;;
53036;SDS011;38924;52.134;4.666;2023-07-20T06:49:06;8.05;;;7.55;;
53036;SDS011;38924;52.134;4.666;2023-07-20T06:51:32;8.20;;;7.45;;
53036;SDS011;38924;52.134;4.666;2023-07-20T06:53:58;5.97;;;5.68;;
53036;SDS011;38924;52.134;4.666;2023-07-20T06:56:24;7.43;;;6.78;;
53036;SDS011;38924;52.134;4.666;2023-07-20T06:58:49;7.60;;;7.10;;
53036;SDS011;38924;52.134;4.666;2023-07-20T07:01:15;8.20;;;7.47;;
53036;SDS011;38924;52.134;4.666;2023-07-20T07:03:41;7.45;;;6.75;;
53036;SDS011;38924;52.134;4.666;2023-07-20T07:06:06;7.07;;;6.55;;
53036;SDS011;38924;52.134;4.666;2023-07-20T07:08:32;6.25;;;5.90;;
53036;SDS011;38924;52.134;4.666;2023-07-20T07:10:58;6.35;;;5.85;;
53036;SDS011;38924;52.134;4.666;2023-07-20T07:13:23;6.88;;;6.18;;
53036;SDS011;38924;52.134;4.666;2023-07-20T07:15:50;6.38;;;5.93;;
53036;SDS011;38924;52.134;4.666;2023-07-20T07:18:16;6.50;;;5.93;;
53036;SDS011;38924;52.134;4.666;2023-07-20T07:20:41;4.88;;;4.47;;
53036;SDS011;38924;52.134;4.666;2023-07-20T07:23:07;5.30;;;4.85;;
53036;SDS011;38924;52.134;4.666;2023-07-20T07:25:33;5.03;;;4.53;;
53036;SDS011;38924;52.134;4.666;2023-07-20T07:27:59;5.90;;;5.40;;
53036;SDS011;38924;52.134;4.666;2023-07-20T07:30:25;6.03;;;5.57;;
53036;SDS011;38924;52.134;4.666;2023-07-20T07:32:51;4.43;;;4.13;;
53036;SDS011;38924;52.134;4.666;2023-07-20T07:35:17;5.53;;;5.03;;
53036;SDS011;38924;52.134;4.666;2023-07-20T07:37:43;6.60;;;6.22;;
53036;SDS011;38924;52.134;4.666;2023-07-20T07:40:09;4.40;;;4.10;;
53036;SDS011;38924;52.134;4.666;2023-07-20T07:42:36;4.65;;;3.97;;
53036;SDS011;38924;52.134;4.666;2023-07-20T07:45:02;6.60;;;6.20;;
53036;SDS011;38924;52.134;4.666;2023-07-20T07:47:27;4.72;;;4.43;;
53036;SDS011;38924;52.134;4.666;2023-07-20T07:49:54;6.60;;;6.10;;
53036;SDS011;38924;52.134;4.666;2023-07-20T07:52:19;5.50;;;5.00;;
53036;SDS011;38924;52.134;4.666;2023-07-20T07:54:46;5.07;;;4.78;;
53036;SDS011;38924;52.134;4.666;2023-07-20T07:57:12;5.57;;;5.18;;
53036;SDS011;38924;52.134;4.666;2023-07-20T07:59:39;9.93;;;9.05;;
53036;SDS011;38924;52.134;4.666;2023-07-20T08:02:05;27.70;;;6.95;;
53036;SDS011;38924;52.134;4.666;2023-07-20T08:04:31;16.05;;;6.88;;
53036;SDS011;38924;52.134;4.666;2023-07-20T08:06:57;19.48;;;6.82;;
53036;SDS011;38924;52.134;4.666;2023-07-20T08:09:23;14.18;;;7.38;;
53036;SDS011;38924;52.134;4.666;2023-07-20T08:11:49;6.22;;;5.93;;
53036;SDS011;38924;52.134;4.666;2023-07-20T08:14:15;5.57;;;4.43;;
53036;SDS011;38924;52.134;4.666;2023-07-20T08:16:41;7.00;;;6.60;;
53036;SDS011;38924;52.134;4.666;2023-07-20T08:19:07;5.10;;;4.65;;
53036;SDS011;38924;52.134;4.666;2023-07-20T08:21:32;5.55;;;5.13;;
53036;SDS011;38924;52.134;4.666;2023-07-20T08:23:58;6.03;;;5.60;;
53036;SDS011;38924;52.134;4.666;2023-07-20T08:26:24;4.60;;;4.30;;
53036;SDS011;38924;52.134;4.666;2023-07-20T08:28:52;6.00;;;5.60;;
53036;SDS011;38924;52.134;4.666;2023-07-20T08:31:21;4.85;;;4.45;;
53036;SDS011;38924;52.134;4.666;2023-07-20T08:33:49;5.35;;;5.05;;
53036;SDS011;38924;52.134;4.666;2023-07-20T08:36:16;6.20;;;5.80;;
53036;SDS011;38924;52.134;4.666;2023-07-20T08:38:42;5.32;;;4.70;;
53036;SDS011;38924;52.134;4.666;2023-07-20T08:41:08;6.18;;;5.78;;
53036;SDS011;38924;52.134;4.666;2023-07-20T08:43:34;6.97;;;5.57;;
53036;SDS011;38924;52.134;4.666;2023-07-20T08:46:01;5.78;;;5.47;;
53036;SDS011;38924;52.134;4.666;2023-07-20T08:48:28;7.03;;;6.53;;
53036;SDS011;38924;52.134;4.666;2023-07-20T08:50:55;7.30;;;6.68;;
53036;SDS011;38924;52.134;4.666;2023-07-20T08:53:21;4.20;;;3.90;;
53036;SDS011;38924;52.134;4.666;2023-07-20T08:55:50;6.25;;;5.75;;
53036;SDS011;38924;52.134;4.666;2023-07-20T08:58:17;6.88;;;6.25;;
53036;SDS011;38924;52.134;4.666;2023-07-20T09:00:46;5.28;;;4.78;;
53036;SDS011;38924;52.134;4.666;2023-07-20T09:03:12;6.07;;;5.55;;
53036;SDS011;38924;52.134;4.666;2023-07-20T09:05:38;7.38;;;6.72;;
53036;SDS011;38924;52.134;4.666;2023-07-20T09:08:05;5.43;;;4.63;;
53036;SDS011;38924;52.134;4.666;2023-07-20T09:10:31;5.00;;;4.70;;
53036;SDS011;38924;52.134;4.666;2023-07-20T09:12:57;5.47;;;5.18;;
53036;SDS011;38924;52.134;4.666;2023-07-20T09:15:23;5.05;;;4.70;;
53036;SDS011;38924;52.134;4.666;2023-07-20T09:17:50;5.38;;;3.80;;
53036;SDS011;38924;52.134;4.666;2023-07-20T09:20:17;4.85;;;4.30;;
53036;SDS011;38924;52.134;4.666;2023-07-20T09:22:43;5.32;;;4.82;;
53036;SDS011;38924;52.134;4.666;2023-07-20T09:25:16;4.78;;;4.32;;
53036;SDS011;38924;52.134;4.666;2023-07-20T09:27:42;5.45;;;5.15;;
53036;SDS011;38924;52.134;4.666;2023-07-20T09:30:08;4.78;;;4.50;;
53036;SDS011;38924;52.134;4.666;2023-07-20T09:32:48;5.43;;;4.80;;
53036;SDS011;38924;52.134;4.666;2023-07-20T09:35:19;5.60;;;5.20;;
53036;SDS011;38924;52.134;4.666;2023-07-20T09:37:53;8.02;;;7.45;;
53036;SDS011;38924;52.134;4.666;2023-07-20T09:40:19;6.70;;;6.22;;
53036;SDS011;38924;52.134;4.666;2023-07-20T09:42:45;9.55;;;7.78;;
53036;SDS011;38924;52.134;4.666;2023-07-20T09:45:11;7.80;;;7.30;;
53036;SDS011;38924;52.134;4.666;2023-07-20T09:47:37;7.63;;;7.03;;
53036;SDS011;38924;52.134;4.666;2023-07-20T09:50:04;6.72;;;6.32;;
53036;SDS011;38924;52.134;4.666;2023-07-20T09:52:30;7.32;;;6.72;;
53036;SDS011;38924;52.134;4.666;2023-07-20T09:54:56;7.63;;;7.10;;
53036;SDS011;38924;52.134;4.666;2023-07-20T09:57:22;6.78;;;6.35;;
53036;SDS011;38924;52.134;4.666;2023-07-20T09:59:48;7.28;;;6.65;;
53036;SDS011;38924;52.134;4.666;2023-07-20T10:02:20;7.35;;;6.85;;
53036;SDS011;38924;52.134;4.666;2023-07-20T10:04:47;5.85;;;5.35;;
53036;SDS011;38924;52.134;4.666;2023-07-20T10:07:14;6.00;;;5.70;;
53036;SDS011;38924;52.134;4.666;2023-07-20T10:09:40;6.45;;;6.05;;
53036;SDS011;38924;52.134;4.666;2023-07-20T10:12:07;7.47;;;6.88;;
53036;SDS011;38924;52.134;4.666;2023-07-20T10:14:35;6.63;;;6.22;;
53036;SDS011;38924;52.134;4.666;2023-07-20T10:17:04;7.03;;;6.43;;
53036;SDS011;38924;52.134;4.666;2023-07-20T10:19:34;4.97;;;4.68;;
53036;SDS011;38924;52.134;4.666;2023-07-20T10:22:07;6.65;;;6.15;;
53036;SDS011;38924;52.134;4.666;2023-07-20T10:24:35;7.82;;;7.22;;
53036;SDS011;38924;52.134;4.666;2023-07-20T10:27:01;6.47;;;6.07;;
53036;SDS011;38924;52.134;4.666;2023-07-20T10:29:26;8.63;;;4.95;;
53036;SDS011;38924;52.134;4.666;2023-07-20T10:31:53;6.55;;;5.93;;
53036;SDS011;38924;52.134;4.666;2023-07-20T10:34:19;7.07;;;6.60;;
53036;SDS011;38924;52.134;4.666;2023-07-20T10:36:46;7.32;;;6.72;;
53036;SDS011;38924;52.134;4.666;2023-07-20T10:39:24;6.78;;;6.38;;
53036;SDS011;38924;52.134;4.666;2023-07-20T10:41:59;6.03;;;5.45;;
53036;SDS011;38924;52.134;4.666;2023-07-20T10:44:27;7.65;;;6.95;;
53036;SDS011;38924;52.134;4.666;2023-07-20T10:46:58;6.85;;;5.55;;
53036;SDS011;38924;52.134;4.666;2023-07-20T10:49:24;5.95;;;5.57;;
53036;SDS011;38924;52.134;4.666;2023-07-20T10:51:58;6.15;;;5.65;;
53036;SDS011;38924;52.134;4.666;2023-07-20T10:56:50;6.47;;;4.35;;
53036;SDS011;38924;52.134;4.666;2023-07-20T11:01:56;4.65;;;4.25;;
53036;SDS011;38924;52.134;4.666;2023-07-20T11:04:43;5.28;;;4.97;;
53036;SDS011;38924;52.134;4.666;2023-07-20T11:07:09;3.88;;;3.65;;
53036;SDS011;38924;52.134;4.666;2023-07-20T11:09:35;4.90;;;4.50;;
53036;SDS011;38924;52.134;4.666;2023-07-20T11:12:14;5.70;;;5.35;;
53036;SDS011;38924;52.134;4.666;2023-07-20T11:14:41;5.03;;;4.72;;
53036;SDS011;38924;52.134;4.666;2023-07-20T11:17:10;6.65;;;6.05;;
53036;SDS011;38924;52.134;4.666;2023-07-20T11:19:39;4.65;;;4.25;;
53036;SDS011;38924;52.134;4.666;2023-07-20T11:22:06;5.72;;;5.38;;
53036;SDS011;38924;52.134;4.666;2023-07-20T11:24:38;4.22;;;4.00;;
53036;SDS011;38924;52.134;4.666;2023-07-20T11:27:05;6.07;;;5.68;;
53036;SDS011;38924;52.134;4.666;2023-07-20T11:29:37;6.72;;;6.25;;
53036;SDS011;38924;52.134;4.666;2023-07-20T11:32:03;17.50;;;6.88;;
53036;SDS011;38924;52.134;4.666;2023-07-20T11:34:30;5.57;;;5.22;;
53036;SDS011;38924;52.134;4.666;2023-07-20T11:36:56;6.43;;;6.07;;
53036;SDS011;38924;52.134;4.666;2023-07-20T11:39:22;7.15;;;6.75;;
53036;SDS011;38924;52.134;4.666;2023-07-20T11:41:49;6.57;;;6.18;;
53036;SDS011;38924;52.134;4.666;2023-07-20T11:44:18;6.45;;;5.95;;
53036;SDS011;38924;52.134;4.666;2023-07-20T11:46:44;7.00;;;6.65;;
53036;SDS011;38924;52.134;4.666;2023-07-20T11:49:10;6.72;;;6.32;;
53036;SDS011;38924;52.134;4.666;2023-07-20T11:51:36;6.75;;;6.38;;
53036;SDS011;38924;52.134;4.666;2023-07-20T11:54:03;5.93;;;5.63;;
53036;SDS011;38924;52.134;4.666;2023-07-20T11:56:29;5.88;;;5.50;;
53036;SDS011;38924;52.134;4.666;2023-07-20T11:58:59;6.25;;;5.85;;
53036;SDS011;38924;52.134;4.666;2023-07-20T12:01:29;6.43;;;6.13;;
53036;SDS011;38924;52.134;4.666;2023-07-20T12:04:01;6.07;;;5.72;;
53036;SDS011;38924;52.134;4.666;2023-07-20T12:06:29;5.50;;;5.03;;
53036;SDS011;38924;52.134;4.666;2023-07-20T12:08:56;6.63;;;6.13;;
53036;SDS011;38924;52.134;4.666;2023-07-20T12:11:35;7.25;;;6.55;;
53036;SDS011;38924;52.134;4.666;2023-07-20T12:14:02;5.63;;;5.30;;
53036;SDS011;38924;52.134;4.666;2023-07-20T12:16:28;4.53;;;4.22;;
53036;SDS011;38924;52.134;4.666;2023-07-20T12:19:10;3.65;;;3.45;;
53036;SDS011;38924;52.134;4.666;2023-07-20T12:21:40;5.63;;;4.85;;
53036;SDS011;38924;52.134;4.666;2023-07-20T12:24:10;6.78;;;5.80;;
53036;SDS011;38924;52.134;4.666;2023-07-20T12:26:36;5.22;;;4.93;;
53036;SDS011;38924;52.134;4.666;2023-07-20T12:29:02;6.28;;;5.78;;
53036;SDS011;38924;52.134;4.666;2023-07-20T12:31:33;5.18;;;4.93;;
53036;SDS011;38924;52.134;4.666;2023-07-20T12:33:59;5.85;;;5.30;;
53036;SDS011;38924;52.134;4.666;2023-07-20T12:36:25;9.05;;;4.35;;
53036;SDS011;38924;52.134;4.666;2023-07-20T12:38:50;5.63;;;5.15;;
53036;SDS011;38924;52.134;4.666;2023-07-20T12:41:16;10.93;;;5.75;;
53036;SDS011;38924;52.134;4.666;2023-07-20T12:43:43;5.80;;;5.50;;
53036;SDS011;38924;52.134;4.666;2023-07-20T12:46:10;5.93;;;5.57;;
53036;SDS011;38924;52.134;4.666;2023-07-20T12:48:37;11.15;;;6.78;;
53036;SDS011;38924;52.134;4.666;2023-07-20T12:51:03;7.15;;;6.65;;
53036;SDS011;38924;52.134;4.666;2023-07-20T12:53:30;8.32;;;7.70;;
53036;SDS011;38924;52.134;4.666;2023-07-20T12:55:56;6.18;;;5.78;;
53036;SDS011;38924;52.134;4.666;2023-07-20T12:58:22;6.55;;;6.15;;
53036;SDS011;38924;52.134;4.666;2023-07-20T13:00:47;7.38;;;6.93;;
53036;SDS011;38924;52.134;4.666;2023-07-20T13:03:13;8.07;;;5.60;;
53036;SDS011;38924;52.134;4.666;2023-07-20T13:05:39;9.65;;;5.75;;
53036;SDS011;38924;52.134;4.666;2023-07-20T13:08:05;5.75;;;5.43;;
53036;SDS011;38924;52.134;4.666;2023-07-20T13:10:31;5.15;;;4.85;;
53036;SDS011;38924;52.134;4.666;2023-07-20T13:12:59;5.15;;;4.85;;
53036;SDS011;38924;52.134;4.666;2023-07-20T13:15:29;6.00;;;5.70;;
53036;SDS011;38924;52.134;4.666;2023-07-20T13:17:56;9.52;;;5.75;;
53036;SDS011;38924;52.134;4.666;2023-07-20T13:20:22;5.90;;;5.50;;
53036;SDS011;38924;52.134;4.666;2023-07-20T13:22:48;7.47;;;6.95;;
53036;SDS011;38924;52.134;4.666;2023-07-20T13:25:14;6.20;;;5.85;;
53036;SDS011;38924;52.134;4.666;2023-07-20T13:27:40;6.20;;;5.85;;
53036;SDS011;38924;52.134;4.666;2023-07-20T13:30:06;5.85;;;5.50;;
53036;SDS011;38924;52.134;4.666;2023-07-20T13:32:35;5.95;;;5.55;;
53036;SDS011;38924;52.134;4.666;2023-07-20T13:35:01;7.15;;;6.72;;
53036;SDS011;38924;52.134;4.666;2023-07-20T13:37:35;5.45;;;5.15;;
53036;SDS011;38924;52.134;4.666;2023-07-20T13:40:01;5.82;;;5.38;;
53036;SDS011;38924;52.134;4.666;2023-07-20T13:42:28;7.57;;;7.18;;
53036;SDS011;38924;52.134;4.666;2023-07-20T13:44:54;5.78;;;5.47;;
53036;SDS011;38924;52.134;4.666;2023-07-20T13:47:20;5.97;;;5.57;;
53036;SDS011;38924;52.134;4.666;2023-07-20T13:49:45;5.22;;;4.93;;
53036;SDS011;38924;52.134;4.666;2023-07-20T13:52:11;8.40;;;6.05;;
53036;SDS011;38924;52.134;4.666;2023-07-20T13:54:37;5.43;;;5.03;;
53036;SDS011;38924;52.134;4.666;2023-07-20T13:57:03;4.32;;;4.13;;
53036;SDS011;38924;52.134;4.666;2023-07-20T13:59:29;6.13;;;5.72;;
53036;SDS011;38924;52.134;4.666;2023-07-20T14:01:54;5.63;;;5.22;;
53036;SDS011;38924;52.134;4.666;2023-07-20T14:04:20;6.03;;;4.45;;
53036;SDS011;38924;52.134;4.666;2023-07-20T14:06:46;8.13;;;5.65;;
53036;SDS011;38924;52.134;4.666;2023-07-20T14:09:13;6.00;;;5.70;;
53036;SDS011;38924;52.134;4.666;2023-07-20T14:11:38;6.90;;;6.40;;
53036;SDS011;38924;52.134;4.666;2023-07-20T14:14:04;6.68;;;6.28;;
53036;SDS011;38924;52.134;4.666;2023-07-20T14:16:30;8.77;;;6.07;;
53036;SDS011;38924;52.134;4.666;2023-07-20T14:18:57;5.32;;;5.05;;
53036;SDS011;38924;52.134;4.666;2023-07-20T14:21:23;5.00;;;4.72;;
53036;SDS011;38924;52.134;4.666;2023-07-20T14:23:51;5.50;;;5.05;;
53036;SDS011;38924;52.134;4.666;2023-07-20T14:26:16;5.82;;;5.30;;
53036;SDS011;38924;52.134;4.666;2023-07-20T14:28:42;5.45;;;4.53;;
53036;SDS011;38924;52.134;4.666;2023-07-20T14:31:08;4.93;;;4.47;;
53036;SDS011;38924;52.134;4.666;2023-07-20T14:33:34;5.32;;;4.97;;
53036;SDS011;38924;52.134;4.666;2023-07-20T14:35:59;4.97;;;4.43;;
53036;SDS011;38924;52.134;4.666;2023-07-20T14:38:28;4.47;;;4.20;;
53036;SDS011;38924;52.134;4.666;2023-07-20T14:40:54;6.28;;;5.65;;
53036;SDS011;38924;52.134;4.666;2023-07-20T14:43:20;4.65;;;4.38;;
53036;SDS011;38924;52.134;4.666;2023-07-20T14:45:46;5.13;;;4.82;;
53036;SDS011;38924;52.134;4.666;2023-07-20T14:48:12;5.95;;;5.57;;
53036;SDS011;38924;52.134;4.666;2023-07-20T14:50:37;5.05;;;4.78;;
53036;SDS011;38924;52.134;4.666;2023-07-20T14:53:03;4.72;;;4.43;;
53036;SDS011;38924;52.134;4.666;2023-07-20T14:55:29;5.63;;;4.80;;
53036;SDS011;38924;52.134;4.666;2023-07-20T14:57:54;6.20;;;5.00;;
53036;SDS011;38924;52.134;4.666;2023-07-20T15:00:20;5.20;;;4.85;;
53036;SDS011;38924;52.134;4.666;2023-07-20T15:02:46;5.68;;;5.38;;
53036;SDS011;38924;52.134;4.666;2023-07-20T15:05:12;5.50;;;5.10;;